Time;durP1;ratioP1;P1;durP2;ratioP2;P2;SDS_P1;SDS_P2;PMS_P1;PMS_P2;Temp;Humidity;BMP_temperature;BMP_pressure;BME280_temperature;BME280_humidity;BME280_pressure;Samples;Min_cycle;Max_cycle;Signal;HPM_P1;HPM_P2
2023/07/16 00:01:31;;;;;;;6.40;2.03;;;16.40;99.90;;;;;;5004520;28;20137;-89
2023/07/16 00:03:57;;;;;;;11.50;2.65;;;16.40;99.90;;;;;;5030999;28;20041;-86
2023/07/16 00:06:22;;;;;;;11.23;2.25;;;16.40;99.90;;;;;;5024030;28;20048;-88
2023/07/16 00:08:48;;;;;;;16.90;3.13;;;16.30;99.90;;;;;;5016990;28;20045;-89
2023/07/16 00:11:14;;;;;;;6.18;2.20;;;16.40;99.90;;;;;;5017805;28;20533;-89
2023/07/16 00:13:45;;;;;;;8.45;2.22;;;16.30;99.90;;;;;;4997170;28;20397;-89
2023/07/16 00:16:12;;;;;;;12.02;2.83;;;17.10;99.90;;;;;;5001788;28;20057;-89
2023/07/16 00:18:37;;;;;;;9.23;3.05;;;16.30;99.90;;;;;;5000159;28;20509;-90
2023/07/16 00:21:03;;;;;;;8.45;2.70;;;16.30;99.90;;;;;;5017837;28;20049;-87
2023/07/16 00:23:28;;;;;;;13.10;2.80;;;16.20;99.90;;;;;;5008354;28;20089;-89
2023/07/16 00:25:54;;;;;;;9.60;3.00;;;17.40;99.90;;;;;;5020657;28;20045;-87
2023/07/16 00:28:20;;;;;;;10.73;2.58;;;16.20;99.90;;;;;;5015863;28;20048;-88
2023/07/16 00:30:45;;;;;;;16.67;3.08;;;16.80;99.90;;;;;;5017807;28;20053;-88
2023/07/16 00:33:11;;;;;;;9.93;2.45;;;16.30;99.90;;;;;;5019054;28;20048;-89
2023/07/16 00:35:37;;;;;;;9.05;2.53;;;16.20;99.90;;;;;;5020413;28;20513;-87
2023/07/16 00:38:02;;;;;;;9.10;2.70;;;16.20;99.90;;;;;;5020173;28;20056;-87
2023/07/16 00:40:28;;;;;;;11.57;3.22;;;16.70;99.90;;;;;;5016077;28;20494;-89
2023/07/16 00:42:54;;;;;;;7.45;2.50;;;16.30;99.90;;;;;;5015241;28;20034;-86
2023/07/16 00:45:19;;;;;;;9.40;2.45;;;16.20;99.90;;;;;;5019741;28;20144;-88
2023/07/16 00:47:45;;;;;;;9.13;2.58;;;16.20;99.90;;;;;;5020428;28;20096;-87
2023/07/16 00:50:12;;;;;;;11.45;2.95;;;16.20;99.90;;;;;;5018351;28;20128;-88
2023/07/16 00:52:39;;;;;;;12.25;3.08;;;16.20;99.90;;;;;;5016665;28;20119;-88
2023/07/16 00:55:06;;;;;;;15.00;2.70;;;16.50;99.90;;;;;;5018824;28;20041;-87
2023/07/16 00:57:33;;;;;;;11.93;2.85;;;16.20;99.90;;;;;;5019943;28;20037;-89
2023/07/16 00:59:58;;;;;;;10.13;2.83;;;17.10;99.90;;;;;;5020460;28;20140;-89
2023/07/16 01:02:25;;;;;;;12.05;2.97;;;16.30;99.90;;;;;;5016862;28;20042;-87
2023/07/16 01:04:51;;;;;;;9.95;2.75;;;16.30;99.90;;;;;;5020648;28;20048;-89
2023/07/16 01:07:21;;;;;;;10.07;3.10;;;16.10;99.90;;;;;;5022500;28;20077;-89
2023/07/16 01:09:47;;;;;;;12.13;2.88;;;14.70;99.90;;;;;;5025402;28;20053;-88
2023/07/16 01:12:13;;;;;;;10.23;3.40;;;16.30;99.90;;;;;;5022233;28;20373;-88
2023/07/16 01:14:40;;;;;;;15.52;2.90;;;16.40;99.90;;;;;;5022370;28;20501;-89
2023/07/16 01:17:06;;;;;;;11.15;2.85;;;16.40;99.90;;;;;;5022463;28;20046;-89
2023/07/16 01:19:35;;;;;;;13.18;3.17;;;16.40;99.90;;;;;;5022103;28;20398;-90
2023/07/16 01:22:16;;;;;;;11.35;2.35;;;16.50;99.90;;;;;;5030163;28;20034;-89
2023/07/16 01:24:54;;;;;;;13.90;3.47;;;16.50;99.90;;;;;;5025459;28;20111;-89
2023/07/16 01:27:58;;;;;;;9.23;2.92;;;16.40;99.90;;;;;;5025063;28;20050;-88
2023/07/16 01:30:26;;;;;;;8.85;2.65;;;16.50;99.90;;;;;;5026793;28;20049;-86
2023/07/16 01:32:53;;;;;;;10.70;2.75;;;17.80;99.90;;;;;;5024994;28;20035;-90
2023/07/16 01:35:19;;;;;;;15.23;3.03;;;16.50;99.90;;;;;;5023739;28;20037;-87
2023/07/16 01:37:45;;;;;;;6.65;2.22;;;16.50;99.90;;;;;;5022308;28;20113;-88
2023/07/16 01:40:11;;;;;;;9.73;2.60;;;16.50;99.90;;;;;;5027968;28;20378;-88
2023/07/16 01:42:37;;;;;;;9.90;2.20;;;16.50;99.90;;;;;;5034659;28;20025;-88
2023/07/16 01:45:03;;;;;;;9.13;2.30;;;18.00;99.90;;;;;;5027740;28;20045;-86
2023/07/16 01:47:35;;;;;;;5.43;2.00;;;16.40;99.90;;;;;;5020741;28;20034;-87
2023/07/16 01:50:00;;;;;;;8.65;2.58;;;17.70;99.90;;;;;;5028828;28;20049;-88
2023/07/16 01:52:26;;;;;;;8.07;2.00;;;16.50;99.90;;;;;;5024677;28;20508;-87
2023/07/16 01:54:52;;;;;;;10.35;2.50;;;16.40;99.90;;;;;;5017637;28;20129;-89
2023/07/16 01:57:17;;;;;;;11.70;2.50;;;16.40;99.90;;;;;;5030044;28;20038;-90
2023/07/16 01:59:43;;;;;;;11.18;2.30;;;16.40;99.90;;;;;;5020981;28;20102;-89
2023/07/16 02:02:09;;;;;;;10.30;2.60;;;16.40;99.90;;;;;;5022231;28;20044;-89
2023/07/16 02:04:34;;;;;;;9.27;2.22;;;18.00;99.90;;;;;;5020439;28;20044;-88
2023/07/16 02:07:00;;;;;;;9.20;2.00;;;16.40;99.90;;;;;;5019558;28;20034;-87
2023/07/16 02:09:26;;;;;;;11.80;2.47;;;16.40;99.90;;;;;;5021138;28;20056;-87
2023/07/16 02:11:52;;;;;;;8.35;2.55;;;16.40;99.90;;;;;;5020215;28;20034;-88
2023/07/16 02:14:17;;;;;;;9.13;2.28;;;16.40;99.90;;;;;;5021109;28;20034;-89
2023/07/16 02:16:43;;;;;;;11.18;2.90;;;16.40;99.90;;;;;;5020214;28;20096;-89
2023/07/16 02:19:09;;;;;;;9.52;2.78;;;17.30;99.90;;;;;;5019382;28;20164;-89
2023/07/16 02:21:35;;;;;;;7.10;2.72;;;16.50;99.90;;;;;;5007123;28;20071;-90
2023/07/16 02:24:00;;;;;;;9.93;2.85;;;16.40;99.90;;;;;;5016308;28;20490;-89
2023/07/16 02:26:26;;;;;;;10.05;3.78;;;16.40;99.90;;;;;;5021584;28;20058;-88
2023/07/16 02:28:52;;;;;;;9.57;2.97;;;16.40;99.90;;;;;;5023167;28;20041;-89
2023/07/16 02:31:17;;;;;;;10.48;2.78;;;16.40;99.90;;;;;;5021858;28;20049;-89
2023/07/16 02:33:43;;;;;;;11.52;2.75;;;16.40;99.90;;;;;;5019416;28;20449;-88
2023/07/16 02:36:09;;;;;;;7.15;2.78;;;16.50;99.90;;;;;;5019152;28;20088;-88
2023/07/16 02:38:34;;;;;;;10.27;2.97;;;16.40;99.90;;;;;;5022277;28;20119;-87
2023/07/16 02:41:00;;;;;;;13.85;3.22;;;16.40;99.90;;;;;;5024166;28;20041;-86
2023/07/16 02:43:26;;;;;;;8.88;3.33;;;16.40;99.90;;;;;;5022315;28;20340;-89
2023/07/16 02:45:51;;;;;;;13.95;3.65;;;16.40;99.90;;;;;;5021808;28;20084;-85
2023/07/16 02:48:17;;;;;;;9.50;3.13;;;16.40;99.90;;;;;;5020380;28;20081;-88
2023/07/16 02:50:42;;;;;;;10.43;3.08;;;16.30;99.90;;;;;;5023241;28;20096;-86
2023/07/16 02:53:08;;;;;;;8.68;3.35;;;16.30;99.90;;;;;;5015097;28;20046;-88
2023/07/16 02:55:37;;;;;;;10.82;3.13;;;16.40;99.90;;;;;;5026791;28;20373;-87
2023/07/16 02:58:04;;;;;;;15.00;3.92;;;16.40;99.90;;;;;;5019532;28;20041;-87
2023/07/16 03:00:31;;;;;;;8.32;3.17;;;16.70;99.90;;;;;;5020588;28;20054;-88
2023/07/16 03:02:58;;;;;;;7.65;2.72;;;17.70;99.90;;;;;;5021739;28;20077;-87
2023/07/16 03:05:24;;;;;;;8.25;3.28;;;16.40;99.90;;;;;;5019366;28;20124;-87
2023/07/16 03:07:49;;;;;;;7.72;2.95;;;16.90;99.90;;;;;;5017323;28;20133;-87
2023/07/16 03:10:15;;;;;;;11.68;3.35;;;16.40;99.90;;;;;;5017133;28;20052;-87
2023/07/16 03:12:41;;;;;;;8.07;3.40;;;17.10;99.90;;;;;;5023006;28;20042;-87
2023/07/16 03:15:07;;;;;;;12.10;3.85;;;16.30;99.90;;;;;;5023555;28;20053;-87
2023/07/16 03:17:33;;;;;;;11.00;3.72;;;16.40;99.90;;;;;;5024889;28;20049;-89
2023/07/16 03:19:58;;;;;;;10.57;3.88;;;17.20;99.90;;;;;;5027226;28;20046;-89
2023/07/16 03:22:24;;;;;;;10.40;4.25;;;16.40;99.90;;;;;;5026115;28;20053;-87
2023/07/16 03:24:49;;;;;;;8.50;3.63;;;16.30;99.90;;;;;;5022173;28;20120;-87
2023/07/16 03:27:15;;;;;;;15.27;3.53;;;17.50;99.90;;;;;;5021855;28;20049;-87
2023/07/16 03:29:41;;;;;;;11.85;3.83;;;17.30;99.90;;;;;;5002521;28;20038;-88
2023/07/16 03:32:07;;;;;;;10.02;3.65;;;16.30;99.90;;;;;;5002113;28;20126;-88
2023/07/16 03:34:32;;;;;;;8.70;3.58;;;16.30;99.90;;;;;;5004167;28;20050;-90
2023/07/16 03:36:58;;;;;;;8.60;3.22;;;16.30;99.90;;;;;;5022931;28;20048;-89
2023/07/16 03:39:24;;;;;;;8.55;3.70;;;16.30;99.90;;;;;;5003444;28;20378;-87
2023/07/16 03:41:49;;;;;;;14.23;4.65;;;16.30;99.90;;;;;;5001802;28;20437;-88
2023/07/16 03:44:15;;;;;;;9.43;3.67;;;16.30;99.90;;;;;;5001444;28;20441;-88
2023/07/16 03:46:41;;;;;;;11.70;4.28;;;16.40;99.90;;;;;;5022118;28;20125;-86
2023/07/16 03:49:08;;;;;;;8.63;4.10;;;16.30;99.90;;;;;;5007941;28;20044;-89
2023/07/16 03:51:34;;;;;;;8.43;4.07;;;16.30;99.90;;;;;;5001971;28;20077;-87
2023/07/16 03:53:59;;;;;;;10.82;4.70;;;16.30;99.90;;;;;;5017785;28;20121;-89
2023/07/16 03:56:25;;;;;;;14.90;4.63;;;16.30;99.90;;;;;;5019044;28;20516;-88
2023/07/16 03:58:51;;;;;;;12.05;4.13;;;16.40;99.90;;;;;;5017472;28;20066;-89
2023/07/16 04:01:16;;;;;;;10.52;4.18;;;16.30;99.90;;;;;;5001746;28;20426;-88
2023/07/16 04:03:42;;;;;;;12.23;5.15;;;17.00;99.90;;;;;;4980665;28;20083;-88
2023/07/16 04:06:09;;;;;;;9.50;4.47;;;16.30;99.90;;;;;;5021710;28;20049;-86
2023/07/16 04:08:36;;;;;;;15.57;4.80;;;16.30;99.90;;;;;;5020269;28;20500;-87
2023/07/16 04:11:03;;;;;;;10.82;4.28;;;16.40;99.90;;;;;;5000815;28;20085;-89
2023/07/16 04:13:29;;;;;;;11.85;4.72;;;16.20;99.90;;;;;;5001436;28;20046;-87
2023/07/16 04:15:55;;;;;;;13.15;4.28;;;16.30;99.90;;;;;;5026440;28;20049;-88
2023/07/16 04:18:25;;;;;;;12.85;4.53;;;16.30;99.90;;;;;;5018539;28;20042;-88
2023/07/16 04:20:51;;;;;;;12.80;5.07;;;16.30;99.90;;;;;;5021400;28;20037;-88
2023/07/16 04:23:16;;;;;;;9.57;4.38;;;16.30;99.90;;;;;;5023410;28;20057;-90
2023/07/16 04:25:42;;;;;;;11.13;4.43;;;16.30;99.90;;;;;;5018792;28;20045;-87
2023/07/16 04:28:08;;;;;;;14.32;4.72;;;16.70;99.90;;;;;;5017193;28;20046;-87
2023/07/16 04:30:34;;;;;;;9.50;5.05;;;17.20;99.90;;;;;;5001535;28;20130;-89
2023/07/16 04:32:59;;;;;;;11.57;5.00;;;17.40;99.90;;;;;;5024848;28;20046;-88
2023/07/16 04:35:25;;;;;;;15.15;4.75;;;16.40;99.90;;;;;;5017011;28;20441;-86
2023/07/16 04:37:50;;;;;;;11.68;5.10;;;16.70;99.90;;;;;;5020720;28;20116;-86
2023/07/16 04:40:16;;;;;;;14.23;5.80;;;16.40;99.90;;;;;;5021434;28;20081;-88
2023/07/16 04:42:42;;;;;;;18.90;6.28;;;16.40;99.90;;;;;;5019026;28;20042;-87
2023/07/16 04:45:07;;;;;;;12.10;4.78;;;16.50;99.90;;;;;;5000913;28;20045;-86
2023/07/16 04:47:33;;;;;;;11.55;5.15;;;16.50;99.90;;;;;;5018602;28;20050;-87
2023/07/16 04:49:59;;;;;;;9.32;5.00;;;17.60;99.90;;;;;;5020738;28;20053;-87
2023/07/16 04:52:25;;;;;;;12.50;5.90;;;16.50;99.90;;;;;;5003506;28;20041;-88
2023/07/16 04:54:51;;;;;;;13.40;5.13;;;16.60;99.90;;;;;;5001523;28;20038;-88
2023/07/16 04:57:17;;;;;;;13.43;6.18;;;16.70;99.90;;;;;;5023486;28;20056;-86
2023/07/16 04:59:43;;;;;;;10.55;5.60;;;16.60;99.90;;;;;;5030036;28;20029;-88
2023/07/16 05:02:08;;;;;;;15.65;5.03;;;16.70;99.90;;;;;;5001427;28;20097;-86
2023/07/16 05:04:35;;;;;;;16.17;5.45;;;16.60;99.90;;;;;;5019226;28;20045;-88
2023/07/16 05:07:04;;;;;;;13.57;5.30;;;16.60;99.90;;;;;;5007628;28;20135;-88
2023/07/16 05:09:30;;;;;;;10.68;4.97;;;17.70;99.90;;;;;;5025391;28;20049;-87
2023/07/16 05:11:56;;;;;;;10.95;5.32;;;16.60;99.90;;;;;;5017238;28;20045;-87
2023/07/16 05:14:21;;;;;;;14.70;5.13;;;16.70;99.90;;;;;;5017653;28;20393;-88
2023/07/16 05:16:47;;;;;;;13.63;5.00;;;17.70;99.90;;;;;;5003913;28;20133;-87
2023/07/16 05:19:13;;;;;;;9.48;4.43;;;17.00;99.90;;;;;;5025111;28;20073;-88
2023/07/16 05:21:38;;;;;;;12.77;4.45;;;17.70;99.90;;;;;;5026316;28;20041;-87
2023/07/16 05:24:04;;;;;;;13.45;4.47;;;16.80;99.90;;;;;;5017369;28;20053;-88
2023/07/16 05:26:30;;;;;;;14.63;4.97;;;16.90;99.90;;;;;;5000767;28;20096;-86
2023/07/16 05:28:56;;;;;;;14.80;4.70;;;17.40;99.90;;;;;;5003650;28;20342;-88
2023/07/16 05:31:21;;;;;;;13.35;4.18;;;16.90;99.90;;;;;;4997578;28;20041;-88
2023/07/16 05:33:47;;;;;;;12.30;4.43;;;17.00;99.90;;;;;;5002409;28;20049;-88
2023/07/16 05:36:13;;;;;;;11.85;5.00;;;17.00;99.90;;;;;;5004617;28;20046;-88
2023/07/16 05:38:39;;;;;;;11.43;4.95;;;16.50;99.90;;;;;;5003377;28;20037;-88
2023/07/16 05:41:04;;;;;;;11.73;4.95;;;15.70;99.90;;;;;;5003882;28;20103;-88
2023/07/16 05:43:41;;;;;;;;;;;;;;;;;;;;;
2023/07/16 05:46:07;;;;;;;7.70;4.25;;;17.00;99.90;;;;;;5006562;28;20057;-88
2023/07/16 05:48:32;;;;;;;10.63;3.70;;;17.00;99.90;;;;;;5015239;28;20708;-88
2023/07/16 05:50:58;;;;;;;11.27;4.28;;;17.10;99.90;;;;;;5027171;28;20414;-88
2023/07/16 05:53:24;;;;;;;11.23;4.05;;;17.10;99.90;;;;;;5005647;28;20057;-88
2023/07/16 05:55:51;;;;;;;10.30;4.07;;;17.20;99.90;;;;;;5026095;28;20072;-87
2023/07/16 05:58:17;;;;;;;9.05;3.78;;;17.50;99.90;;;;;;5003691;28;20057;-89
2023/07/16 06:00:42;;;;;;;9.13;3.60;;;17.30;99.90;;;;;;5009211;28;20038;-88
2023/07/16 06:03:08;;;;;;;10.23;4.20;;;17.30;99.90;;;;;;5006883;28;20049;-88
2023/07/16 06:05:34;;;;;;;11.82;3.92;;;17.40;99.90;;;;;;5007273;28;20536;-88
2023/07/16 06:08:03;;;;;;;17.33;4.85;;;17.50;99.90;;;;;;5024644;28;20037;-90
2023/07/16 06:10:29;;;;;;;8.27;4.05;;;17.50;99.90;;;;;;5007435;28;20076;-88
2023/07/16 06:12:54;;;;;;;11.80;4.40;;;18.00;99.90;;;;;;5025494;28;20385;-88
2023/07/16 06:15:20;;;;;;;11.40;4.20;;;17.50;99.90;;;;;;5005935;28;20046;-88
2023/07/16 06:17:46;;;;;;;12.13;3.72;;;17.50;99.90;;;;;;5023504;28;20049;-87
2023/07/16 06:20:11;;;;;;;20.58;5.10;;;17.60;99.90;;;;;;5006749;28;20052;-87
2023/07/16 06:22:37;;;;;;;9.07;4.63;;;17.60;99.90;;;;;;5026111;28;20084;-88
2023/07/16 06:25:04;;;;;;;7.50;4.00;;;17.70;99.90;;;;;;4999600;28;20050;-89
2023/07/16 06:27:30;;;;;;;10.73;4.63;;;17.60;99.90;;;;;;5024363;28;20044;-88
2023/07/16 06:29:56;;;;;;;13.23;4.72;;;17.70;99.90;;;;;;5023026;28;20117;-87
2023/07/16 06:32:21;;;;;;;15.30;4.70;;;17.70;99.90;;;;;;5023953;28;20053;-88
2023/07/16 06:34:47;;;;;;;10.93;4.97;;;17.70;99.90;;;;;;5027710;28;20041;-85
2023/07/16 06:37:13;;;;;;;9.88;4.95;;;17.70;99.90;;;;;;5031219;28;20030;-87
2023/07/16 06:39:38;;;;;;;11.65;4.90;;;17.70;99.90;;;;;;5025530;28;20124;-86
2023/07/16 06:42:04;;;;;;;12.82;4.82;;;17.70;99.90;;;;;;5006819;28;20045;-86
2023/07/16 06:44:30;;;;;;;12.82;4.60;;;17.70;99.90;;;;;;5018295;28;20050;-88
2023/07/16 06:46:57;;;;;;;11.50;4.78;;;17.80;99.90;;;;;;5004597;28;20037;-87
2023/07/16 06:49:23;;;;;;;15.68;5.18;;;17.90;99.90;;;;;;5022512;28;20087;-87
2023/07/16 06:51:49;;;;;;;9.50;4.25;;;18.30;99.90;;;;;;5005454;28;20077;-87
2023/07/16 06:54:14;;;;;;;17.33;5.20;;;17.90;99.90;;;;;;5006976;28;20072;-87
2023/07/16 06:56:40;;;;;;;12.50;5.10;;;18.30;99.90;;;;;;5022905;28;20095;-87
2023/07/16 06:59:06;;;;;;;9.75;4.85;;;17.90;99.90;;;;;;5019766;28;20070;-88
2023/07/16 07:01:32;;;;;;;8.88;4.47;;;17.90;99.90;;;;;;5019547;28;20042;-88
2023/07/16 07:03:57;;;;;;;12.38;5.03;;;17.90;99.90;;;;;;5021169;28;20103;-87
2023/07/16 07:06:23;;;;;;;9.95;4.75;;;18.00;99.90;;;;;;5023652;28;20539;-87
2023/07/16 07:08:49;;;;;;;8.75;4.65;;;17.90;99.90;;;;;;5004694;28;20080;-85
2023/07/16 07:11:14;;;;;;;11.98;5.03;;;18.00;99.90;;;;;;5019953;28;20394;-87
2023/07/16 07:13:40;;;;;;;15.05;5.95;;;18.10;99.90;;;;;;5002061;28;20099;-89
2023/07/16 07:16:06;;;;;;;11.45;5.53;;;18.10;99.90;;;;;;5022664;28;20041;-88
2023/07/16 07:18:31;;;;;;;8.40;5.03;;;18.90;99.90;;;;;;4989430;28;20052;-88
2023/07/16 07:20:57;;;;;;;13.18;4.97;;;18.20;99.90;;;;;;5008611;28;20044;-87
2023/07/16 07:23:23;;;;;;;28.75;7.38;;;18.90;99.90;;;;;;5008201;28;20486;-86
2023/07/16 07:25:51;;;;;;;82.20;11.98;;;18.10;99.90;;;;;;5021179;28;20045;-86
2023/07/16 07:28:18;;;;;;;12.43;4.78;;;18.60;99.90;;;;;;5023940;28;20042;-88
2023/07/16 07:30:44;;;;;;;21.13;5.22;;;18.00;99.90;;;;;;5022941;28;20120;-87
2023/07/16 07:33:10;;;;;;;13.65;4.85;;;18.00;99.90;;;;;;5021002;28;20154;-86
2023/07/16 07:35:36;;;;;;;13.23;4.18;;;18.00;99.90;;;;;;5020012;28;20069;-88
2023/07/16 07:38:02;;;;;;;9.82;4.38;;;18.00;99.90;;;;;;5021325;28;20041;-88
2023/07/16 07:40:28;;;;;;;12.88;4.88;;;18.00;99.90;;;;;;5021139;28;20041;-90
2023/07/16 07:42:53;;;;;;;16.33;6.53;;;17.90;99.90;;;;;;5021265;28;20080;-89
2023/07/16 07:45:19;;;;;;;7.75;4.85;;;18.60;99.90;;;;;;5019286;28;20034;-84
2023/07/16 07:47:45;;;;;;;11.52;4.20;;;18.00;99.90;;;;;;5018953;28;20173;-83
2023/07/16 07:50:10;;;;;;;6.97;4.60;;;17.90;99.90;;;;;;5023633;28;20120;-83
2023/07/16 07:52:36;;;;;;;11.02;5.05;;;17.90;99.90;;;;;;5021768;28;20077;-84
2023/07/16 07:55:03;;;;;;;9.05;4.60;;;17.90;99.90;;;;;;5019635;28;20045;-84
2023/07/16 07:57:29;;;;;;;11.07;3.97;;;17.90;99.90;;;;;;5019007;28;20038;-83
2023/07/16 07:59:57;;;;;;;13.57;4.93;;;18.00;99.90;;;;;;5018568;28;20045;-84
2023/07/16 08:02:26;;;;;;;13.13;6.07;;;18.00;99.90;;;;;;5022542;28;20060;-83
2023/07/16 08:04:52;;;;;;;10.52;4.72;;;18.20;99.90;;;;;;5020551;28;20705;-83
2023/07/16 08:07:18;;;;;;;8.15;4.55;;;18.20;99.90;;;;;;5018025;28;20037;-84
2023/07/16 08:09:45;;;;;;;12.70;5.03;;;18.30;99.90;;;;;;5016647;28;20132;-83
2023/07/16 08:12:11;;;;;;;9.10;5.15;;;18.20;99.90;;;;;;5022742;28;20038;-83
2023/07/16 08:14:37;;;;;;;8.57;4.50;;;18.20;99.90;;;;;;5031277;28;20030;-84
2023/07/16 08:17:03;;;;;;;7.85;4.35;;;18.20;99.90;;;;;;5024834;28;20041;-83
2023/07/16 08:19:28;;;;;;;8.82;4.22;;;18.10;99.90;;;;;;5015897;28;20041;-83
2023/07/16 08:21:54;;;;;;;9.93;5.00;;;18.10;99.90;;;;;;5017916;28;20037;-84
2023/07/16 08:24:20;;;;;;;13.55;4.93;;;17.90;99.90;;;;;;5019202;28;20077;-82
2023/07/16 08:26:45;;;;;;;35.70;8.40;;;17.90;99.90;;;;;;5019935;28;20045;-83
2023/07/16 08:29:11;;;;;;;17.35;5.82;;;17.70;99.90;;;;;;5017070;28;20041;-83
2023/07/16 08:31:36;;;;;;;10.90;5.00;;;17.60;99.90;;;;;;5015594;28;20528;-84
2023/07/16 08:34:03;;;;;;;34.55;7.28;;;17.60;99.90;;;;;;5019091;28;20073;-84
2023/07/16 08:36:29;;;;;;;12.00;5.03;;;17.60;99.90;;;;;;5018128;28;20049;-84
2023/07/16 08:38:55;;;;;;;12.40;5.80;;;17.60;99.90;;;;;;5017362;28;20074;-83
2023/07/16 08:41:20;;;;;;;9.57;4.65;;;17.60;99.90;;;;;;5019945;28;20574;-84
2023/07/16 08:43:49;;;;;;;14.45;5.05;;;17.70;99.90;;;;;;5020680;28;20038;-82
2023/07/16 08:46:18;;;;;;;13.95;5.18;;;17.90;99.90;;;;;;5018096;28;20084;-83
2023/07/16 08:48:45;;;;;;;9.98;4.75;;;18.00;99.90;;;;;;5016235;28;20034;-82
2023/07/16 08:51:15;;;;;;;12.13;5.18;;;18.10;99.90;;;;;;5019548;28;20068;-84
2023/07/16 08:53:41;;;;;;;14.40;4.60;;;17.20;99.90;;;;;;5019787;28;20103;-86
2023/07/16 08:56:07;;;;;;;15.85;4.47;;;18.50;99.90;;;;;;5001901;28;20038;-84
2023/07/16 08:58:33;;;;;;;11.88;5.45;;;19.00;99.90;;;;;;5015416;28;20116;-84
2023/07/16 09:01:00;;;;;;;9.00;4.18;;;18.80;99.90;;;;;;5017261;28;20046;-84
2023/07/16 09:03:26;;;;;;;10.75;4.75;;;18.80;99.90;;;;;;5018868;28;20107;-83
2023/07/16 09:05:54;;;;;;;7.88;4.00;;;19.40;99.90;;;;;;5021154;28;20041;-84
2023/07/16 09:08:19;;;;;;;9.00;4.50;;;18.90;99.90;;;;;;5016318;28;20107;-86
2023/07/16 09:10:54;;;;;;;11.95;4.13;;;19.00;99.90;;;;;;5017670;28;20040;-85
2023/07/16 09:13:19;;;;;;;9.63;4.43;;;19.00;99.90;;;;;;5017165;28;20041;-84
2023/07/16 09:15:51;;;;;;;13.00;4.28;;;19.00;99.90;;;;;;5015995;28;20040;-86
2023/07/16 09:18:26;;;;;;;6.45;4.47;;;19.00;99.90;;;;;;5016296;28;20041;-86
2023/07/16 09:21:00;;;;;;;13.57;4.88;;;18.90;99.90;;;;;;5018677;28;20413;-85
2023/07/16 09:23:29;;;;;;;11.30;4.32;;;18.90;99.90;;;;;;5020089;28;20104;-86
2023/07/16 09:25:55;;;;;;;9.13;4.78;;;19.20;99.90;;;;;;5024652;28;20034;-86
2023/07/16 09:28:21;;;;;;;6.43;4.18;;;18.90;99.90;;;;;;5021847;28;20501;-84
2023/07/16 09:30:48;;;;;;;9.85;5.05;;;18.90;99.90;;;;;;5002900;28;20042;-85
2023/07/16 09:33:14;;;;;;;14.50;4.68;;;19.00;99.90;;;;;;5022098;28;20042;-84
2023/07/16 09:35:41;;;;;;;7.10;3.40;;;19.50;99.90;;;;;;5024909;28;20106;-84
2023/07/16 09:38:11;;;;;;;10.18;4.53;;;19.10;99.90;;;;;;5023407;28;20038;-85
2023/07/16 09:40:38;;;;;;;10.25;4.32;;;19.10;99.90;;;;;;5021859;28;20120;-86
2023/07/16 09:43:06;;;;;;;13.20;5.22;;;19.10;99.90;;;;;;5020861;28;20078;-84
2023/07/16 09:45:31;;;;;;;8.80;4.30;;;19.10;99.90;;;;;;5024654;28;20034;-85
2023/07/16 09:47:57;;;;;;;9.65;4.60;;;19.10;99.90;;;;;;5024746;28;20060;-83
2023/07/16 09:50:24;;;;;;;11.45;5.32;;;18.50;99.90;;;;;;5026463;28;20071;-85
2023/07/16 09:52:51;;;;;;;8.82;3.83;;;19.20;99.90;;;;;;5034341;28;20048;-86
2023/07/16 09:55:21;;;;;;;10.25;4.53;;;19.00;99.90;;;;;;5028149;28;20104;-84
2023/07/16 09:57:48;;;;;;;13.30;4.35;;;19.20;99.90;;;;;;5017202;28;20079;-87
2023/07/16 10:00:15;;;;;;;9.73;4.65;;;19.30;99.90;;;;;;5005483;28;20080;-82
2023/07/16 10:02:44;;;;;;;9.48;4.05;;;19.30;99.90;;;;;;5021514;28;20343;-85
2023/07/16 10:05:12;;;;;;;7.15;4.15;;;19.40;99.90;;;;;;5020785;28;20129;-85
2023/07/16 10:07:39;;;;;;;9.88;3.85;;;19.40;99.90;;;;;;5025340;28;20033;-86
2023/07/16 10:10:08;;;;;;;15.00;4.35;;;19.50;99.90;;;;;;5024139;28;20392;-85
2023/07/16 10:12:35;;;;;;;6.47;4.25;;;19.60;99.90;;;;;;5023302;28;20523;-82
2023/07/16 10:15:02;;;;;;;9.85;4.28;;;19.60;99.90;;;;;;5017082;28;20046;-85
2023/07/16 10:17:30;;;;;;;14.85;4.70;;;19.70;99.90;;;;;;5022944;28;20098;-84
2023/07/16 10:20:07;;;;;;;9.77;4.38;;;19.70;99.90;;;;;;5023134;28;20497;-87
2023/07/16 10:22:41;;;;;;;11.60;4.68;;;19.80;99.90;;;;;;5003917;28;20096;-86
2023/07/16 10:25:23;;;;;;;9.40;4.32;;;19.90;99.90;;;;;;5002555;28;20429;-84
2023/07/16 10:27:51;;;;;;;8.75;4.30;;;20.00;99.90;;;;;;5024835;28;20091;-84
2023/07/16 10:30:17;;;;;;;10.45;3.85;;;19.80;99.90;;;;;;5006924;28;20073;-87
2023/07/16 10:32:43;;;;;;;10.10;4.10;;;19.80;99.90;;;;;;5024144;28;20053;-88
2023/07/16 10:35:10;;;;;;;7.72;4.60;;;19.70;99.90;;;;;;5026620;28;20037;-86
2023/07/16 10:37:36;;;;;;;8.02;4.53;;;19.60;99.90;;;;;;5023654;28;20499;-84
2023/07/16 10:40:03;;;;;;;8.15;4.45;;;19.60;99.90;;;;;;5005952;28;20106;-87
2023/07/16 10:42:29;;;;;;;11.30;4.80;;;19.60;99.90;;;;;;5021460;28;20050;-86
2023/07/16 10:44:58;;;;;;;9.63;4.78;;;19.70;99.90;;;;;;5019664;28;20074;-85
2023/07/16 10:47:35;;;;;;;9.63;4.00;;;19.70;99.90;;;;;;5021458;28;20049;-85
2023/07/16 10:50:05;;;;;;;6.80;3.78;;;19.80;99.90;;;;;;5017825;28;20216;-84
2023/07/16 10:52:30;;;;;;;13.43;4.38;;;19.80;99.90;;;;;;5022213;28;20084;-84
2023/07/16 10:54:57;;;;;;;10.45;4.70;;;19.90;99.90;;;;;;5007181;28;20404;-86
2023/07/16 10:57:24;;;;;;;11.38;4.63;;;19.90;99.90;;;;;;5024321;28;20053;-84
2023/07/16 11:00:00;;;;;;;9.27;3.92;;;20.10;99.90;;;;;;5023067;28;20153;-86
2023/07/16 11:02:27;;;;;;;10.45;4.05;;;20.10;99.90;;;;;;5022237;28;20121;-85
2023/07/16 11:04:53;;;;;;;9.85;3.85;;;19.50;99.90;;;;;;5021376;28;20046;-86
2023/07/16 11:07:20;;;;;;;7.85;4.30;;;20.30;99.90;;;;;;5028885;28;20041;-88
2023/07/16 11:09:49;;;;;;;5.80;3.85;;;19.50;99.90;;;;;;5019683;28;20390;-86
2023/07/16 11:12:17;;;;;;;12.98;4.28;;;20.30;99.90;;;;;;5027554;28;20057;-86
2023/07/16 11:14:53;;;;;;;9.63;4.57;;;20.30;99.90;;;;;;5021780;28;20362;-85
2023/07/16 11:17:22;;;;;;;15.02;4.30;;;20.20;99.90;;;;;;5030240;28;20493;-86
2023/07/16 11:19:49;;;;;;;12.77;7.50;;;20.20;99.90;;;;;;5006240;28;20107;-83
2023/07/16 11:22:17;;;;;;;9.52;3.58;;;20.10;99.90;;;;;;5026564;28;20053;-82
2023/07/16 11:24:47;;;;;;;7.53;3.78;;;19.90;99.90;;;;;;5030136;28;20386;-82
2023/07/16 11:27:18;;;;;;;6.78;3.70;;;19.90;99.90;;;;;;5023456;28;20045;-85
2023/07/16 11:29:53;;;;;;;8.32;3.90;;;19.70;99.90;;;;;;5029412;28;20041;-82
2023/07/16 11:32:36;;;;;;;11.70;4.55;;;19.90;99.90;;;;;;4998407;28;20041;-84
2023/07/16 11:35:05;;;;;;;11.13;3.90;;;20.00;99.90;;;;;;5005467;28;20576;-82
2023/07/16 11:37:33;;;;;;;8.35;4.05;;;20.10;99.90;;;;;;5010708;28;20398;-84
2023/07/16 11:40:03;;;;;;;8.25;4.13;;;20.70;99.90;;;;;;5023564;28;20045;-85
2023/07/16 11:42:34;;;;;;;10.23;4.38;;;20.00;99.90;;;;;;5029271;28;20056;-83
2023/07/16 11:45:00;;;;;;;9.05;3.55;;;20.00;99.90;;;;;;5022654;28;20049;-85
2023/07/16 11:47:27;;;;;;;9.98;4.10;;;19.90;99.90;;;;;;5019951;28;20045;-85
2023/07/16 11:49:53;;;;;;;8.10;3.90;;;19.80;99.90;;;;;;5024107;28;20034;-83
2023/07/16 11:52:27;;;;;;;12.85;4.38;;;19.90;99.90;;;;;;5024519;28;20069;-84
2023/07/16 11:54:54;;;;;;;11.85;4.30;;;19.70;99.90;;;;;;5021447;28;20038;-83
2023/07/16 11:57:20;;;;;;;6.10;4.43;;;19.50;99.90;;;;;;5029125;28;20049;-87
2023/07/16 11:59:45;;;;;;;18.02;5.20;;;19.40;99.90;;;;;;5042039;28;20485;-81
2023/07/16 12:02:12;;;;;;;12.38;4.72;;;19.30;99.90;;;;;;4334450;28;10021447;-81
2023/07/16 12:04:37;;;;;;;9.30;5.22;;;19.50;99.90;;;;;;5022930;28;20041;-85
2023/07/16 12:07:03;;;;;;;9.55;4.55;;;19.40;99.90;;;;;;5009793;28;20132;-82
2023/07/16 12:09:29;;;;;;;10.95;5.60;;;19.40;99.90;;;;;;5029313;28;20063;-84
2023/07/16 12:11:55;;;;;;;10.85;5.32;;;19.40;99.90;;;;;;5019992;28;20046;-81
2023/07/16 12:14:21;;;;;;;8.60;4.97;;;19.50;99.90;;;;;;4666089;28;10000359;-82
2023/07/16 12:16:47;;;;;;;9.18;4.88;;;19.50;99.90;;;;;;5005956;28;20489;-83
2023/07/16 12:19:12;;;;;;;9.63;5.75;;;19.50;99.90;;;;;;4678318;28;9999918;-81
2023/07/16 12:21:38;;;;;;;8.80;5.75;;;19.80;99.90;;;;;;5008716;28;20037;-84
2023/07/16 12:24:04;;;;;;;12.50;5.95;;;19.30;99.90;;;;;;5021521;28;20054;-83
2023/07/16 12:26:30;;;;;;;13.43;5.60;;;19.30;99.90;;;;;;5023821;28;20049;-83
2023/07/16 12:28:55;;;;;;;7.35;5.03;;;19.30;99.90;;;;;;4663059;28;9999665;-84
2023/07/16 12:31:21;;;;;;;9.77;5.63;;;19.40;99.90;;;;;;5020731;28;20041;-82
2023/07/16 12:33:47;;;;;;;7.70;4.68;;;19.30;99.90;;;;;;5025192;28;20048;-84
2023/07/16 12:36:13;;;;;;;5.82;3.97;;;19.20;99.90;;;;;;5026687;28;20076;-85
2023/07/16 12:38:39;;;;;;;10.60;4.95;;;19.20;99.90;;;;;;5026044;28;20033;-84